sensor_id;sensor_type;location;lat;lon;timestamp;P1;durP1;ratioP1;P2;durP2;ratioP2
1054;SDS011;516;51.482;7.120;2023-10-08T00:02:09;10.47;;;9.57;;
1054;SDS011;516;51.482;7.120;2023-10-08T00:04:35;12.83;;;9.80;;
1054;SDS011;516;51.482;7.120;2023-10-08T00:07:03;10.73;;;9.83;;
1054;SDS011;516;51.482;7.120;2023-10-08T00:09:33;12.97;;;11.77;;
1054;SDS011;516;51.482;7.120;2023-10-08T00:12:02;11.83;;;10.67;;
1054;SDS011;516;51.482;7.120;2023-10-08T00:14:28;10.30;;;9.30;;
1054;SDS011;516;51.482;7.120;2023-10-08T00:16:54;11.20;;;9.63;;
1054;SDS011;516;51.482;7.120;2023-10-08T00:19:21;12.30;;;10.40;;
1054;SDS011;516;51.482;7.120;2023-10-08T00:21:47;11.80;;;9.90;;
1054;SDS011;516;51.482;7.120;2023-10-08T00:24:14;10.60;;;9.60;;
1054;SDS011;516;51.482;7.120;2023-10-08T00:26:41;11.97;;;10.83;;
1054;SDS011;516;51.482;7.120;2023-10-08T00:31:47;10.70;;;9.83;;
1054;SDS011;516;51.482;7.120;2023-10-08T00:34:15;10.60;;;9.60;;
1054;SDS011;516;51.482;7.120;2023-10-08T00:36:45;11.50;;;10.40;;
1054;SDS011;516;51.482;7.120;2023-10-08T00:39:14;14.73;;;10.80;;
1054;SDS011;516;51.482;7.120;2023-10-08T00:41:52;10.80;;;9.83;;
1054;SDS011;516;51.482;7.120;2023-10-08T00:44:23;11.03;;;9.90;;
1054;SDS011;516;51.482;7.120;2023-10-08T00:46:56;10.07;;;9.20;;
1054;SDS011;516;51.482;7.120;2023-10-08T00:49:26;11.30;;;9.93;;
1054;SDS011;516;51.482;7.120;2023-10-08T00:52:13;10.83;;;9.83;;
1054;SDS011;516;51.482;7.120;2023-10-08T00:54:40;11.93;;;9.63;;
1054;SDS011;516;51.482;7.120;2023-10-08T00:57:27;14.93;;;11.33;;
1054;SDS011;516;51.482;7.120;2023-10-08T00:59:54;11.00;;;10.10;;
1054;SDS011;516;51.482;7.120;2023-10-08T01:02:24;10.77;;;9.67;;
1054;SDS011;516;51.482;7.120;2023-10-08T01:04:53;10.77;;;9.87;;
1054;SDS011;516;51.482;7.120;2023-10-08T01:07:19;11.63;;;10.53;;
1054;SDS011;516;51.482;7.120;2023-10-08T01:09:47;11.93;;;10.07;;
1054;SDS011;516;51.482;7.120;2023-10-08T01:12:17;12.97;;;11.03;;
1054;SDS011;516;51.482;7.120;2023-10-08T01:14:48;17.83;;;10.97;;
1054;SDS011;516;51.482;7.120;2023-10-08T01:17:16;11.13;;;9.90;;
1054;SDS011;516;51.482;7.120;2023-10-08T01:19:48;10.73;;;9.63;;
1054;SDS011;516;51.482;7.120;2023-10-08T01:22:33;9.67;;;8.87;;
1054;SDS011;516;51.482;7.120;2023-10-08T01:24:59;12.20;;;10.00;;
1054;SDS011;516;51.482;7.120;2023-10-08T01:27:30;17.60;;;9.40;;
1054;SDS011;516;51.482;7.120;2023-10-08T01:29:59;10.33;;;9.13;;
1054;SDS011;516;51.482;7.120;2023-10-08T01:32:43;10.40;;;9.40;;
1054;SDS011;516;51.482;7.120;2023-10-08T01:35:09;10.27;;;9.30;;
1054;SDS011;516;51.482;7.120;2023-10-08T01:37:48;13.60;;;11.10;;
1054;SDS011;516;51.482;7.120;2023-10-08T01:40:15;12.50;;;10.30;;
1054;SDS011;516;51.482;7.120;2023-10-08T01:42:42;12.20;;;10.37;;
1054;SDS011;516;51.482;7.120;2023-10-08T01:45:08;11.43;;;10.30;;
1054;SDS011;516;51.482;7.120;2023-10-08T01:47:38;11.73;;;10.63;;
1054;SDS011;516;51.482;7.120;2023-10-08T01:50:04;11.53;;;10.43;;
1054;SDS011;516;51.482;7.120;2023-10-08T01:52:43;10.73;;;9.70;;
1054;SDS011;516;51.482;7.120;2023-10-08T01:55:11;11.60;;;10.07;;
1054;SDS011;516;51.482;7.120;2023-10-08T01:57:42;11.97;;;10.80;;
1054;SDS011;516;51.482;7.120;2023-10-08T02:00:08;13.77;;;11.50;;
1054;SDS011;516;51.482;7.120;2023-10-08T02:02:35;10.30;;;9.37;;
1054;SDS011;516;51.482;7.120;2023-10-08T02:05:01;14.27;;;10.07;;
1054;SDS011;516;51.482;7.120;2023-10-08T02:07:29;12.60;;;9.80;;
1054;SDS011;516;51.482;7.120;2023-10-08T02:09:55;12.23;;;10.10;;
1054;SDS011;516;51.482;7.120;2023-10-08T02:12:22;11.50;;;10.33;;
1054;SDS011;516;51.482;7.120;2023-10-08T02:14:48;12.00;;;9.90;;
1054;SDS011;516;51.482;7.120;2023-10-08T02:17:14;11.63;;;10.20;;
1054;SDS011;516;51.482;7.120;2023-10-08T02:19:41;15.13;;;11.03;;
1054;SDS011;516;51.482;7.120;2023-10-08T02:22:07;11.50;;;9.07;;
1054;SDS011;516;51.482;7.120;2023-10-08T02:24:36;11.43;;;10.23;;
1054;SDS011;516;51.482;7.120;2023-10-08T02:27:02;12.90;;;9.83;;
1054;SDS011;516;51.482;7.120;2023-10-08T02:29:29;10.50;;;9.53;;
1054;SDS011;516;51.482;7.120;2023-10-08T02:31:57;12.17;;;9.63;;
1054;SDS011;516;51.482;7.120;2023-10-08T02:34:24;11.50;;;10.37;;
1054;SDS011;516;51.482;7.120;2023-10-08T02:36:51;13.40;;;10.33;;
1054;SDS011;516;51.482;7.120;2023-10-08T02:39:17;12.40;;;11.20;;
1054;SDS011;516;51.482;7.120;2023-10-08T02:41:47;14.73;;;10.37;;
1054;SDS011;516;51.482;7.120;2023-10-08T02:44:13;10.40;;;9.50;;
1054;SDS011;516;51.482;7.120;2023-10-08T02:46:49;10.40;;;9.43;;
1054;SDS011;516;51.482;7.120;2023-10-08T02:49:17;10.80;;;9.50;;
1054;SDS011;516;51.482;7.120;2023-10-08T02:51:45;12.97;;;9.73;;
1054;SDS011;516;51.482;7.120;2023-10-08T02:54:11;11.23;;;9.63;;
1054;SDS011;516;51.482;7.120;2023-10-08T02:56:44;15.50;;;9.60;;
1054;SDS011;516;51.482;7.120;2023-10-08T02:59:12;16.77;;;10.60;;
1054;SDS011;516;51.482;7.120;2023-10-08T03:01:40;13.10;;;10.37;;
1054;SDS011;516;51.482;7.120;2023-10-08T03:04:07;13.37;;;10.63;;
1054;SDS011;516;51.482;7.120;2023-10-08T03:06:40;13.40;;;9.50;;
1054;SDS011;516;51.482;7.120;2023-10-08T03:09:06;12.10;;;9.93;;
1054;SDS011;516;51.482;7.120;2023-10-08T03:11:38;10.60;;;9.50;;
1054;SDS011;516;51.482;7.120;2023-10-08T03:14:05;10.80;;;9.47;;
1054;SDS011;516;51.482;7.120;2023-10-08T03:16:41;12.97;;;9.47;;
1054;SDS011;516;51.482;7.120;2023-10-08T03:19:08;19.60;;;10.57;;
1054;SDS011;516;51.482;7.120;2023-10-08T03:21:34;15.20;;;10.63;;
1054;SDS011;516;51.482;7.120;2023-10-08T03:24:03;14.13;;;9.27;;
1054;SDS011;516;51.482;7.120;2023-10-08T03:26:37;13.33;;;10.23;;
1054;SDS011;516;51.482;7.120;2023-10-08T03:29:06;11.27;;;9.70;;
1054;SDS011;516;51.482;7.120;2023-10-08T03:31:44;13.77;;;9.43;;
1054;SDS011;516;51.482;7.120;2023-10-08T03:34:13;11.30;;;9.23;;
1054;SDS011;516;51.482;7.120;2023-10-08T03:36:40;13.00;;;10.17;;
1054;SDS011;516;51.482;7.120;2023-10-08T03:39:14;12.33;;;11.03;;
1054;SDS011;516;51.482;7.120;2023-10-08T03:41:41;10.53;;;8.70;;
1054;SDS011;516;51.482;7.120;2023-10-08T03:44:07;10.70;;;9.03;;
1054;SDS011;516;51.482;7.120;2023-10-08T03:46:41;11.30;;;9.70;;
1054;SDS011;516;51.482;7.120;2023-10-08T03:49:11;10.70;;;9.67;;
1054;SDS011;516;51.482;7.120;2023-10-08T03:51:46;13.97;;;10.20;;
1054;SDS011;516;51.482;7.120;2023-10-08T03:54:16;11.13;;;8.90;;
1054;SDS011;516;51.482;7.120;2023-10-08T03:56:44;12.37;;;9.60;;
1054;SDS011;516;51.482;7.120;2023-10-08T03:59:11;10.13;;;9.33;;
1054;SDS011;516;51.482;7.120;2023-10-08T04:01:39;14.83;;;10.03;;
1054;SDS011;516;51.482;7.120;2023-10-08T04:04:08;11.37;;;10.27;;
1054;SDS011;516;51.482;7.120;2023-10-08T04:06:42;14.43;;;10.50;;
1054;SDS011;516;51.482;7.120;2023-10-08T04:09:16;14.30;;;11.30;;
1054;SDS011;516;51.482;7.120;2023-10-08T04:11:46;11.60;;;9.90;;
1054;SDS011;516;51.482;7.120;2023-10-08T04:14:28;10.90;;;9.40;;
1054;SDS011;516;51.482;7.120;2023-10-08T04:16:54;11.20;;;10.00;;
1054;SDS011;516;51.482;7.120;2023-10-08T04:19:22;15.00;;;9.57;;
1054;SDS011;516;51.482;7.120;2023-10-08T04:21:58;13.60;;;10.90;;
1054;SDS011;516;51.482;7.120;2023-10-08T04:24:26;16.00;;;9.83;;
1054;SDS011;516;51.482;7.120;2023-10-08T04:27:02;12.77;;;9.93;;
1054;SDS011;516;51.482;7.120;2023-10-08T04:29:30;11.10;;;10.07;;
1054;SDS011;516;51.482;7.120;2023-10-08T04:31:58;18.10;;;9.80;;
1054;SDS011;516;51.482;7.120;2023-10-08T04:34:33;11.43;;;9.50;;
1054;SDS011;516;51.482;7.120;2023-10-08T04:36:59;12.20;;;10.90;;
1054;SDS011;516;51.482;7.120;2023-10-08T04:39:38;14.40;;;9.47;;
1054;SDS011;516;51.482;7.120;2023-10-08T04:42:06;18.90;;;10.87;;
1054;SDS011;516;51.482;7.120;2023-10-08T04:44:36;13.23;;;9.70;;
1054;SDS011;516;51.482;7.120;2023-10-08T04:47:06;22.13;;;10.47;;
1054;SDS011;516;51.482;7.120;2023-10-08T04:49:35;11.80;;;9.80;;
1054;SDS011;516;51.482;7.120;2023-10-08T04:52:10;15.60;;;10.43;;
1054;SDS011;516;51.482;7.120;2023-10-08T04:54:40;13.90;;;9.47;;
1054;SDS011;516;51.482;7.120;2023-10-08T04:57:07;14.70;;;10.80;;
1054;SDS011;516;51.482;7.120;2023-10-08T04:59:40;11.87;;;9.33;;
1054;SDS011;516;51.482;7.120;2023-10-08T05:02:08;8.80;;;8.00;;
1054;SDS011;516;51.482;7.120;2023-10-08T05:04:59;8.80;;;8.10;;
1054;SDS011;516;51.482;7.120;2023-10-08T05:07:35;17.57;;;9.33;;
1054;SDS011;516;51.482;7.120;2023-10-08T05:10:24;12.23;;;9.63;;
1054;SDS011;516;51.482;7.120;2023-10-08T05:12:50;14.33;;;9.67;;
1054;SDS011;516;51.482;7.120;2023-10-08T05:15:29;12.87;;;10.13;;
1054;SDS011;516;51.482;7.120;2023-10-08T05:18:02;11.43;;;8.53;;
1054;SDS011;516;51.482;7.120;2023-10-08T05:20:37;12.83;;;8.10;;
1054;SDS011;516;51.482;7.120;2023-10-08T05:23:16;9.60;;;8.70;;
1054;SDS011;516;51.482;7.120;2023-10-08T05:26:05;10.10;;;8.80;;
1054;SDS011;516;51.482;7.120;2023-10-08T05:28:32;10.93;;;8.80;;
1054;SDS011;516;51.482;7.120;2023-10-08T05:31:11;12.40;;;9.13;;
1054;SDS011;516;51.482;7.120;2023-10-08T05:33:42;10.07;;;8.30;;
1054;SDS011;516;51.482;7.120;2023-10-08T05:36:27;10.43;;;8.77;;
1054;SDS011;516;51.482;7.120;2023-10-08T05:39:01;9.87;;;8.80;;
1054;SDS011;516;51.482;7.120;2023-10-08T05:41:46;14.10;;;9.63;;
1054;SDS011;516;51.482;7.120;2023-10-08T05:44:38;9.90;;;7.70;;
1054;SDS011;516;51.482;7.120;2023-10-08T05:47:05;12.20;;;8.73;;
1054;SDS011;516;51.482;7.120;2023-10-08T05:49:37;14.47;;;9.53;;
1054;SDS011;516;51.482;7.120;2023-10-08T05:52:07;10.33;;;9.23;;
1054;SDS011;516;51.482;7.120;2023-10-08T05:54:49;15.40;;;9.33;;
1054;SDS011;516;51.482;7.120;2023-10-08T05:57:40;13.40;;;9.30;;
1054;SDS011;516;51.482;7.120;2023-10-08T06:00:11;9.87;;;8.63;;
1054;SDS011;516;51.482;7.120;2023-10-08T06:02:42;13.20;;;9.13;;
1054;SDS011;516;51.482;7.120;2023-10-08T06:05:10;12.47;;;9.47;;
1054;SDS011;516;51.482;7.120;2023-10-08T06:07:40;15.83;;;10.20;;
1054;SDS011;516;51.482;7.120;2023-10-08T06:10:22;15.53;;;8.90;;
1054;SDS011;516;51.482;7.120;2023-10-08T06:13:03;13.30;;;9.53;;
1054;SDS011;516;51.482;7.120;2023-10-08T06:15:37;16.90;;;8.70;;
1054;SDS011;516;51.482;7.120;2023-10-08T06:18:13;18.80;;;10.00;;
1054;SDS011;516;51.482;7.120;2023-10-08T06:20:40;13.37;;;10.30;;
1054;SDS011;516;51.482;7.120;2023-10-08T06:23:13;15.83;;;9.77;;
1054;SDS011;516;51.482;7.120;2023-10-08T06:25:43;14.43;;;9.43;;
1054;SDS011;516;51.482;7.120;2023-10-08T06:28:14;10.80;;;9.57;;
1054;SDS011;516;51.482;7.120;2023-10-08T06:30:47;11.33;;;9.73;;
1054;SDS011;516;51.482;7.120;2023-10-08T06:33:15;12.57;;;9.90;;
1054;SDS011;516;51.482;7.120;2023-10-08T06:35:42;16.43;;;10.07;;
1054;SDS011;516;51.482;7.120;2023-10-08T06:38:29;16.97;;;10.20;;
1054;SDS011;516;51.482;7.120;2023-10-08T06:40:59;14.73;;;10.20;;
1054;SDS011;516;51.482;7.120;2023-10-08T06:43:27;10.63;;;9.23;;
1054;SDS011;516;51.482;7.120;2023-10-08T06:45:54;17.97;;;11.37;;
1054;SDS011;516;51.482;7.120;2023-10-08T06:48:23;11.23;;;9.87;;
1054;SDS011;516;51.482;7.120;2023-10-08T06:50:50;13.77;;;9.30;;
1054;SDS011;516;51.482;7.120;2023-10-08T06:53:21;11.00;;;9.87;;
1054;SDS011;516;51.482;7.120;2023-10-08T06:55:48;11.03;;;9.93;;
1054;SDS011;516;51.482;7.120;2023-10-08T06:58:20;16.87;;;10.33;;
1054;SDS011;516;51.482;7.120;2023-10-08T07:00:46;14.23;;;10.57;;
1054;SDS011;516;51.482;7.120;2023-10-08T07:03:14;12.30;;;9.37;;
1054;SDS011;516;51.482;7.120;2023-10-08T07:05:44;15.13;;;10.67;;
1054;SDS011;516;51.482;7.120;2023-10-08T07:08:22;14.47;;;10.57;;
1054;SDS011;516;51.482;7.120;2023-10-08T07:10:52;13.73;;;10.20;;
1054;SDS011;516;51.482;7.120;2023-10-08T07:13:19;13.97;;;10.77;;
1054;SDS011;516;51.482;7.120;2023-10-08T07:15:48;12.33;;;10.20;;
1054;SDS011;516;51.482;7.120;2023-10-08T07:18:14;14.90;;;11.17;;
1054;SDS011;516;51.482;7.120;2023-10-08T07:20:46;18.00;;;10.33;;
1054;SDS011;516;51.482;7.120;2023-10-08T07:23:19;16.70;;;10.40;;
1054;SDS011;516;51.482;7.120;2023-10-08T07:25:46;12.57;;;11.13;;
1054;SDS011;516;51.482;7.120;2023-10-08T07:28:17;13.07;;;11.27;;
1054;SDS011;516;51.482;7.120;2023-10-08T07:30:44;18.60;;;12.97;;
1054;SDS011;516;51.482;7.120;2023-10-08T07:33:11;14.57;;;11.83;;
1054;SDS011;516;51.482;7.120;2023-10-08T07:35:44;26.73;;;12.07;;
1054;SDS011;516;51.482;7.120;2023-10-08T07:38:18;13.87;;;11.37;;
1054;SDS011;516;51.482;7.120;2023-10-08T07:40:46;16.77;;;11.97;;
1054;SDS011;516;51.482;7.120;2023-10-08T07:43:13;15.60;;;11.90;;
1054;SDS011;516;51.482;7.120;2023-10-08T07:45:40;16.97;;;13.30;;
1054;SDS011;516;51.482;7.120;2023-10-08T07:48:10;21.23;;;13.10;;
1054;SDS011;516;51.482;7.120;2023-10-08T07:50:44;22.23;;;12.50;;
1054;SDS011;516;51.482;7.120;2023-10-08T07:53:12;24.13;;;12.97;;
1054;SDS011;516;51.482;7.120;2023-10-08T07:55:43;13.70;;;10.07;;
1054;SDS011;516;51.482;7.120;2023-10-08T07:58:10;11.10;;;9.23;;
1054;SDS011;516;51.482;7.120;2023-10-08T08:00:36;12.63;;;8.70;;
1054;SDS011;516;51.482;7.120;2023-10-08T08:03:04;9.33;;;8.30;;
1054;SDS011;516;51.482;7.120;2023-10-08T08:05:39;9.00;;;8.20;;
1054;SDS011;516;51.482;7.120;2023-10-08T08:08:05;13.40;;;10.43;;
1054;SDS011;516;51.482;7.120;2023-10-08T08:10:32;11.30;;;8.20;;
1054;SDS011;516;51.482;7.120;2023-10-08T08:13:03;10.30;;;8.23;;
1054;SDS011;516;51.482;7.120;2023-10-08T08:15:31;10.53;;;7.97;;
1054;SDS011;516;51.482;7.120;2023-10-08T08:17:58;10.70;;;7.57;;
1054;SDS011;516;51.482;7.120;2023-10-08T08:20:25;16.47;;;7.93;;
1054;SDS011;516;51.482;7.120;2023-10-08T08:23:06;13.97;;;7.50;;
1054;SDS011;516;51.482;7.120;2023-10-08T08:25:36;8.53;;;7.27;;
1054;SDS011;516;51.482;7.120;2023-10-08T08:28:11;11.13;;;8.70;;
1054;SDS011;516;51.482;7.120;2023-10-08T08:30:42;9.47;;;8.00;;
1054;SDS011;516;51.482;7.120;2023-10-08T08:33:14;11.37;;;10.03;;
1054;SDS011;516;51.482;7.120;2023-10-08T08:35:47;20.93;;;13.17;;
1054;SDS011;516;51.482;7.120;2023-10-08T08:38:13;21.63;;;12.67;;
1054;SDS011;516;51.482;7.120;2023-10-08T08:40:39;11.90;;;10.17;;
1054;SDS011;516;51.482;7.120;2023-10-08T08:43:05;16.90;;;10.13;;
1054;SDS011;516;51.482;7.120;2023-10-08T08:45:32;13.30;;;9.70;;
1054;SDS011;516;51.482;7.120;2023-10-08T08:48:01;17.43;;;13.27;;
1054;SDS011;516;51.482;7.120;2023-10-08T08:50:27;15.87;;;12.70;;
1054;SDS011;516;51.482;7.120;2023-10-08T08:52:53;27.60;;;16.93;;
1054;SDS011;516;51.482;7.120;2023-10-08T08:55:21;23.83;;;17.23;;
1054;SDS011;516;51.482;7.120;2023-10-08T08:57:48;32.00;;;21.10;;
1054;SDS011;516;51.482;7.120;2023-10-08T09:00:16;22.73;;;18.37;;
1054;SDS011;516;51.482;7.120;2023-10-08T09:02:44;22.10;;;16.90;;
1054;SDS011;516;51.482;7.120;2023-10-08T09:05:12;21.67;;;15.67;;
1054;SDS011;516;51.482;7.120;2023-10-08T09:07:55;14.13;;;11.43;;
1054;SDS011;516;51.482;7.120;2023-10-08T09:10:22;11.50;;;9.73;;
1054;SDS011;516;51.482;7.120;2023-10-08T09:12:55;17.27;;;12.57;;
1054;SDS011;516;51.482;7.120;2023-10-08T09:15:25;17.90;;;13.20;;
1054;SDS011;516;51.482;7.120;2023-10-08T09:17:57;18.77;;;12.23;;
1054;SDS011;516;51.482;7.120;2023-10-08T09:20:29;17.10;;;12.70;;
1054;SDS011;516;51.482;7.120;2023-10-08T09:23:09;13.80;;;11.70;;
1054;SDS011;516;51.482;7.120;2023-10-08T09:25:37;15.30;;;11.87;;
1054;SDS011;516;51.482;7.120;2023-10-08T09:28:04;11.97;;;10.33;;
1054;SDS011;516;51.482;7.120;2023-10-08T09:30:33;14.07;;;10.90;;
1054;SDS011;516;51.482;7.120;2023-10-08T09:33:04;15.77;;;11.40;;
1054;SDS011;516;51.482;7.120;2023-10-08T09:38:07;13.73;;;10.53;;
1054;SDS011;516;51.482;7.120;2023-10-08T09:40:42;18.10;;;9.63;;
1054;SDS011;516;51.482;7.120;2023-10-08T09:43:16;12.60;;;10.00;;
1054;SDS011;516;51.482;7.120;2023-10-08T09:45:47;13.10;;;9.80;;
1054;SDS011;516;51.482;7.120;2023-10-08T09:48:17;16.80;;;11.20;;
1054;SDS011;516;51.482;7.120;2023-10-08T09:50:44;16.60;;;10.13;;
1054;SDS011;516;51.482;7.120;2023-10-08T09:53:11;12.33;;;8.80;;
1054;SDS011;516;51.482;7.120;2023-10-08T09:55:48;10.53;;;9.43;;
1054;SDS011;516;51.482;7.120;2023-10-08T09:58:16;10.40;;;8.30;;
1054;SDS011;516;51.482;7.120;2023-10-08T10:00:42;9.20;;;8.30;;
1054;SDS011;516;51.482;7.120;2023-10-08T10:03:09;10.00;;;9.10;;
1054;SDS011;516;51.482;7.120;2023-10-08T10:05:37;9.03;;;8.20;;
1054;SDS011;516;51.482;7.120;2023-10-08T10:08:05;8.67;;;7.50;;
1054;SDS011;516;51.482;7.120;2023-10-08T10:10:36;7.57;;;6.63;;
1054;SDS011;516;51.482;7.120;2023-10-08T10:13:04;5.93;;;4.70;;
1054;SDS011;516;51.482;7.120;2023-10-08T10:15:36;5.80;;;5.40;;
1054;SDS011;516;51.482;7.120;2023-10-08T10:18:09;5.97;;;5.37;;
1054;SDS011;516;51.482;7.120;2023-10-08T10:20:44;5.10;;;4.80;;
1054;SDS011;516;51.482;7.120;2023-10-08T10:25:58;6.13;;;4.90;;
1054;SDS011;516;51.482;7.120;2023-10-08T10:28:35;5.90;;;4.40;;
1054;SDS011;516;51.482;7.120;2023-10-08T10:31:05;5.30;;;4.67;;
1054;SDS011;516;51.482;7.120;2023-10-08T10:33:32;5.77;;;5.27;;
1054;SDS011;516;51.482;7.120;2023-10-08T10:36:02;4.57;;;4.27;;
1054;SDS011;516;51.482;7.120;2023-10-08T10:38:31;5.47;;;4.97;;
1054;SDS011;516;51.482;7.120;2023-10-08T10:40:59;3.90;;;3.70;;
1054;SDS011;516;51.482;7.120;2023-10-08T10:43:32;4.63;;;4.33;;
1054;SDS011;516;51.482;7.120;2023-10-08T10:46:00;6.70;;;4.47;;
1054;SDS011;516;51.482;7.120;2023-10-08T10:48:45;4.83;;;4.43;;
1054;SDS011;516;51.482;7.120;2023-10-08T10:51:29;4.10;;;3.90;;
1054;SDS011;516;51.482;7.120;2023-10-08T10:53:55;4.97;;;4.57;;
1054;SDS011;516;51.482;7.120;2023-10-08T10:56:25;5.53;;;5.00;;
1054;SDS011;516;51.482;7.120;2023-10-08T10:59:01;5.30;;;4.80;;
1054;SDS011;516;51.482;7.120;2023-10-08T11:01:42;6.93;;;4.80;;
1054;SDS011;516;51.482;7.120;2023-10-08T11:04:12;6.13;;;5.50;;
1054;SDS011;516;51.482;7.120;2023-10-08T11:06:42;5.27;;;4.90;;
1054;SDS011;516;51.482;7.120;2023-10-08T11:09:10;5.60;;;5.20;;
1054;SDS011;516;51.482;7.120;2023-10-08T11:11:45;5.17;;;4.87;;
1054;SDS011;516;51.482;7.120;2023-10-08T11:14:19;5.90;;;5.40;;
1054;SDS011;516;51.482;7.120;2023-10-08T11:16:47;5.53;;;5.20;;
1054;SDS011;516;51.482;7.120;2023-10-08T11:19:14;6.23;;;5.60;;
1054;SDS011;516;51.482;7.120;2023-10-08T11:21:50;6.17;;;5.77;;
1054;SDS011;516;51.482;7.120;2023-10-08T11:24:33;6.00;;;5.50;;
1054;SDS011;516;51.482;7.120;2023-10-08T11:27:01;5.40;;;5.10;;
1054;SDS011;516;51.482;7.120;2023-10-08T11:29:46;6.40;;;5.73;;
1054;SDS011;516;51.482;7.120;2023-10-08T11:32:13;6.37;;;5.97;;
1054;SDS011;516;51.482;7.120;2023-10-08T11:34:41;6.00;;;5.60;;
1054;SDS011;516;51.482;7.120;2023-10-08T11:37:10;6.53;;;6.00;;
1054;SDS011;516;51.482;7.120;2023-10-08T11:39:46;6.60;;;6.10;;
1054;SDS011;516;51.482;7.120;2023-10-08T11:42:12;6.40;;;6.00;;
1054;SDS011;516;51.482;7.120;2023-10-08T11:45:06;6.63;;;6.03;;
1054;SDS011;516;51.482;7.120;2023-10-08T11:47:50;7.00;;;6.40;;
1054;SDS011;516;51.482;7.120;2023-10-08T11:50:36;6.83;;;6.20;;
1054;SDS011;516;51.482;7.120;2023-10-08T11:53:03;6.90;;;6.50;;
1054;SDS011;516;51.482;7.120;2023-10-08T11:55:40;6.10;;;5.70;;
1054;SDS011;516;51.482;7.120;2023-10-08T11:58:09;6.27;;;5.73;;
1054;SDS011;516;51.482;7.120;2023-10-08T12:00:38;6.00;;;5.50;;
1054;SDS011;516;51.482;7.120;2023-10-08T12:03:11;7.27;;;6.63;;
1054;SDS011;516;51.482;7.120;2023-10-08T12:05:38;6.20;;;5.70;;
1054;SDS011;516;51.482;7.120;2023-10-08T12:08:19;7.40;;;6.90;;
1054;SDS011;516;51.482;7.120;2023-10-08T12:10:49;7.07;;;6.37;;
1054;SDS011;516;51.482;7.120;2023-10-08T12:13:19;6.80;;;6.40;;
1054;SDS011;516;51.482;7.120;2023-10-08T12:15:54;6.90;;;6.50;;
1054;SDS011;516;51.482;7.120;2023-10-08T12:18:31;7.00;;;6.50;;
1054;SDS011;516;51.482;7.120;2023-10-08T12:21:05;7.80;;;7.10;;
1054;SDS011;516;51.482;7.120;2023-10-08T12:23:49;6.97;;;6.57;;
1054;SDS011;516;51.482;7.120;2023-10-08T12:26:17;6.60;;;6.20;;
1054;SDS011;516;51.482;7.120;2023-10-08T12:28:46;7.10;;;6.80;;
1054;SDS011;516;51.482;7.120;2023-10-08T12:36:27;8.43;;;7.83;;
1054;SDS011;516;51.482;7.120;2023-10-08T12:39:00;7.63;;;7.03;;
1054;SDS011;516;51.482;7.120;2023-10-08T12:41:33;7.23;;;6.23;;
1054;SDS011;516;51.482;7.120;2023-10-08T12:44:04;7.47;;;6.97;;
1054;SDS011;516;51.482;7.120;2023-10-08T12:46:34;6.80;;;6.50;;
1054;SDS011;516;51.482;7.120;2023-10-08T12:49:06;7.27;;;6.83;;
1054;SDS011;516;51.482;7.120;2023-10-08T12:51:32;9.60;;;7.60;;
1054;SDS011;516;51.482;7.120;2023-10-08T12:53:58;7.80;;;7.20;;
1054;SDS011;516;51.482;7.120;2023-10-08T12:56:32;6.40;;;6.07;;
1054;SDS011;516;51.482;7.120;2023-10-08T12:59:04;6.80;;;6.40;;
1054;SDS011;516;51.482;7.120;2023-10-08T13:01:41;7.30;;;6.90;;
1054;SDS011;516;51.482;7.120;2023-10-08T13:04:08;7.50;;;6.57;;
1054;SDS011;516;51.482;7.120;2023-10-08T13:06:41;7.80;;;7.20;;
1054;SDS011;516;51.482;7.120;2023-10-08T13:09:10;7.00;;;6.40;;
1054;SDS011;516;51.482;7.120;2023-10-08T13:11:39;8.20;;;6.90;;
1054;SDS011;516;51.482;7.120;2023-10-08T13:14:05;7.17;;;6.53;;
1054;SDS011;516;51.482;7.120;2023-10-08T13:16:31;7.53;;;6.93;;
1054;SDS011;516;51.482;7.120;2023-10-08T13:18:58;7.30;;;6.80;;
1054;SDS011;516;51.482;7.120;2023-10-08T13:21:27;7.03;;;6.50;;
1054;SDS011;516;51.482;7.120;2023-10-08T13:23:57;7.07;;;6.57;;
1054;SDS011;516;51.482;7.120;2023-10-08T13:26:25;6.70;;;6.20;;
1054;SDS011;516;51.482;7.120;2023-10-08T13:28:56;6.70;;;6.30;;
1054;SDS011;516;51.482;7.120;2023-10-08T13:31:23;6.60;;;6.20;;
1054;SDS011;516;51.482;7.120;2023-10-08T13:33:50;7.03;;;6.63;;
1054;SDS011;516;51.482;7.120;2023-10-08T13:36:17;6.50;;;6.10;;
1054;SDS011;516;51.482;7.120;2023-10-08T13:38:44;7.83;;;7.13;;
1054;SDS011;516;51.482;7.120;2023-10-08T13:41:13;8.33;;;7.50;;
1054;SDS011;516;51.482;7.120;2023-10-08T13:43:46;6.70;;;6.20;;
1054;SDS011;516;51.482;7.120;2023-10-08T13:46:16;6.60;;;6.20;;
1054;SDS011;516;51.482;7.120;2023-10-08T13:48:43;7.00;;;6.33;;
1054;SDS011;516;51.482;7.120;2023-10-08T13:51:16;7.33;;;6.67;;
1054;SDS011;516;51.482;7.120;2023-10-08T13:53:51;6.50;;;6.10;;
1054;SDS011;516;51.482;7.120;2023-10-08T13:56:19;6.87;;;6.37;;
1054;SDS011;516;51.482;7.120;2023-10-08T13:58:49;6.43;;;5.83;;
1054;SDS011;516;51.482;7.120;2023-10-08T14:01:17;5.60;;;5.20;;
1054;SDS011;516;51.482;7.120;2023-10-08T14:03:49;5.47;;;5.17;;
1054;SDS011;516;51.482;7.120;2023-10-08T14:06:18;5.57;;;5.07;;
1054;SDS011;516;51.482;7.120;2023-10-08T14:08:45;7.00;;;6.30;;
1054;SDS011;516;51.482;7.120;2023-10-08T14:11:21;6.93;;;6.10;;
1054;SDS011;516;51.482;7.120;2023-10-08T14:13:54;7.13;;;6.53;;
1054;SDS011;516;51.482;7.120;2023-10-08T14:16:21;6.90;;;6.20;;
1054;SDS011;516;51.482;7.120;2023-10-08T14:18:51;6.30;;;5.70;;
1054;SDS011;516;51.482;7.120;2023-10-08T14:21:24;6.27;;;5.80;;
1054;SDS011;516;51.482;7.120;2023-10-08T14:23:58;7.63;;;5.80;;
1054;SDS011;516;51.482;7.120;2023-10-08T14:26:29;6.07;;;5.67;;
1054;SDS011;516;51.482;7.120;2023-10-08T14:29:02;7.00;;;5.50;;
1054;SDS011;516;51.482;7.120;2023-10-08T14:31:40;6.27;;;5.47;;
1054;SDS011;516;51.482;7.120;2023-10-08T14:34:09;6.97;;;5.20;;
1054;SDS011;516;51.482;7.120;2023-10-08T14:36:54;5.83;;;5.37;;
1054;SDS011;516;51.482;7.120;2023-10-08T14:39:38;5.80;;;5.40;;
1054;SDS011;516;51.482;7.120;2023-10-08T14:42:23;6.30;;;5.70;;
1054;SDS011;516;51.482;7.120;2023-10-08T14:45:08;8.33;;;5.80;;
1054;SDS011;516;51.482;7.120;2023-10-08T14:47:38;5.23;;;4.73;;
1054;SDS011;516;51.482;7.120;2023-10-08T14:50:04;5.47;;;4.97;;
1054;SDS011;516;51.482;7.120;2023-10-08T14:52:34;5.70;;;4.83;;
1054;SDS011;516;51.482;7.120;2023-10-08T14:55:00;5.53;;;5.03;;
1054;SDS011;516;51.482;7.120;2023-10-08T14:57:28;5.00;;;4.70;;
1054;SDS011;516;51.482;7.120;2023-10-08T14:59:54;4.93;;;4.63;;
1054;SDS011;516;51.482;7.120;2023-10-08T15:02:22;5.60;;;5.30;;
1054;SDS011;516;51.482;7.120;2023-10-08T15:04:54;7.40;;;5.40;;
1054;SDS011;516;51.482;7.120;2023-10-08T15:07:21;5.40;;;5.00;;
1054;SDS011;516;51.482;7.120;2023-10-08T15:09:48;5.63;;;5.23;;
1054;SDS011;516;51.482;7.120;2023-10-08T15:12:15;5.73;;;5.30;;
1054;SDS011;516;51.482;7.120;2023-10-08T15:14:42;6.63;;;5.03;;
1054;SDS011;516;51.482;7.120;2023-10-08T15:17:08;5.63;;;5.17;;
1054;SDS011;516;51.482;7.120;2023-10-08T15:19:34;6.07;;;5.03;;
1054;SDS011;516;51.482;7.120;2023-10-08T15:22:01;7.50;;;5.40;;
1054;SDS011;516;51.482;7.120;2023-10-08T15:24:27;4.63;;;4.23;;
1054;SDS011;516;51.482;7.120;2023-10-08T15:26:54;6.10;;;4.43;;
1054;SDS011;516;51.482;7.120;2023-10-08T15:29:21;4.03;;;3.63;;
1054;SDS011;516;51.482;7.120;2023-10-08T15:31:50;6.80;;;4.73;;
1054;SDS011;516;51.482;7.120;2023-10-08T15:34:17;4.10;;;3.67;;
1054;SDS011;516;51.482;7.120;2023-10-08T15:36:43;6.03;;;5.33;;
1054;SDS011;516;51.482;7.120;2023-10-08T15:39:10;5.63;;;5.13;;
1054;SDS011;516;51.482;7.120;2023-10-08T15:41:52;8.40;;;5.53;;
1054;SDS011;516;51.482;7.120;2023-10-08T15:44:21;8.03;;;5.00;;
1054;SDS011;516;51.482;7.120;2023-10-08T15:46:49;6.33;;;5.73;;
1054;SDS011;516;51.482;7.120;2023-10-08T15:49:16;6.20;;;5.60;;
1054;SDS011;516;51.482;7.120;2023-10-08T15:51:45;6.70;;;5.60;;
1054;SDS011;516;51.482;7.120;2023-10-08T15:54:11;5.27;;;4.80;;